Time;durP1;ratioP1;P1;durP2;ratioP2;P2;SDS_P1;SDS_P2;PMS_P1;PMS_P2;Temp;Humidity;BMP_temperature;BMP_pressure;BME280_temperature;BME280_humidity;BME280_pressure;Samples;Min_cycle;Max_cycle;Signal;HPM_P1;HPM_P2
2023/08/14 00:01:18;;;;;;;;;;;;;;;25.99;42.99;101698.97;5062738;28;19920;-84
2023/08/14 00:03:43;;;;;;;;;;;;;;;25.93;43.02;101701.09;5062474;28;19974;-84
2023/08/14 00:06:09;;;;;;;;;;;;;;;25.89;43.04;101697.41;5064389;28;19924;-84
2023/08/14 00:08:34;;;;;;;;;;;;;;;25.87;43.04;101691.44;5063332;28;20404;-84
2023/08/14 00:10:59;;;;;;;;;;;;;;;25.79;43.20;101697.75;5064000;28;19965;-83
2023/08/14 00:13:25;;;;;;;;;;;;;;;25.73;43.33;101705.38;5061890;28;19921;-84
2023/08/14 00:15:50;;;;;;;;;;;;;;;25.74;43.05;101704.22;5063423;28;19916;-84
2023/08/14 00:18:16;;;;;;;;;;;;;;;25.76;43.09;101706.66;5062308;28;20016;-83
2023/08/14 00:20:41;;;;;;;;;;;;;;;25.77;42.91;101702.75;5061395;28;20006;-84
2023/08/14 00:23:06;;;;;;;;;;;;;;;25.76;43.03;101703.91;5060726;28;19925;-84
2023/08/14 00:25:32;;;;;;;;;;;;;;;25.72;43.18;101701.00;5064628;28;19924;-83
2023/08/14 00:27:57;;;;;;;;;;;;;;;25.67;43.15;101703.06;5064109;28;19978;-84
2023/08/14 00:30:22;;;;;;;;;;;;;;;25.64;43.26;101703.72;5062743;28;19928;-84
2023/08/14 00:32:48;;;;;;;;;;;;;;;25.61;43.26;101705.19;5063496;28;19970;-84
2023/08/14 00:35:13;;;;;;;;;;;;;;;25.58;43.19;101703.09;5061563;28;20450;-84
2023/08/14 00:37:39;;;;;;;;;;;;;;;25.53;43.30;101709.59;5059393;28;20592;-84
2023/08/14 00:40:06;;;;;;;;;;;;;;;25.52;43.23;101702.50;5062509;28;19973;-84
2023/08/14 00:42:32;;;;;;;;;;;;;;;25.52;43.32;101702.50;5063524;28;19928;-84
2023/08/14 00:44:57;;;;;;;;;;;;;;;25.50;43.26;101693.78;5062026;28;19924;-84
2023/08/14 00:47:22;;;;;;;;;;;;;;;25.48;43.37;101693.28;5062007;28;20415;-84
2023/08/14 00:49:48;;;;;;;;;;;;;;;25.50;43.36;101693.78;5062815;28;19924;-84
2023/08/14 00:52:13;;;;;;;;;;;;;;;25.50;43.71;101687.50;5054267;28;19921;-84
2023/08/14 00:54:38;;;;;;;;;;;;;;;25.53;43.51;101686.81;5060681;28;20017;-83
2023/08/14 00:57:04;;;;;;;;;;;;;;;25.54;43.68;101681.00;5060383;28;20050;-84
2023/08/14 00:59:32;;;;;;;;;;;;;;;25.54;43.79;101686.50;5064487;28;19927;-84
2023/08/14 01:01:57;;;;;;;;;;;;;;;25.55;43.49;101690.84;5063449;28;19928;-84
2023/08/14 01:04:22;;;;;;;;;;;;;;;25.54;43.60;101682.94;5063891;28;19969;-84
2023/08/14 01:06:48;;;;;;;;;;;;;;;25.52;43.91;101683.28;5063362;28;19928;-84
2023/08/14 01:09:13;;;;;;;;;;;;;;;25.51;43.85;101678.94;5063427;28;19923;-83
2023/08/14 01:12:11;;;;;;;;;;;;;;;25.55;43.80;101688.09;5061733;28;19925;-84
2023/08/14 01:14:37;;;;;;;;;;;;;;;25.56;44.18;101680.69;5063728;28;19940;-84
2023/08/14 01:17:06;;;;;;;;;;;;;;;25.59;44.01;101682.75;5065534;28;19998;-84
2023/08/14 01:19:34;;;;;;;;;;;;;;;25.55;43.94;101685.38;5061318;28;19920;-84
2023/08/14 01:21:59;;;;;;;;;;;;;;;25.56;44.00;101691.66;5060834;28;19920;-84
2023/08/14 01:24:32;;;;;;;;;;;;;;;25.57;43.87;101696.81;5063541;28;20376;-84
2023/08/14 01:26:58;;;;;;;;;;;;;;;25.61;44.01;101686.78;5063548;28;19967;-84
2023/08/14 01:29:24;;;;;;;;;;;;;;;25.59;43.86;101686.31;5063031;28;19974;-84
2023/08/14 01:31:49;;;;;;;;;;;;;;;25.59;44.13;101691.81;5063973;28;19947;-84
2023/08/14 01:34:14;;;;;;;;;;;;;;;25.57;44.07;101696.00;5063780;28;19970;-84
2023/08/14 01:36:46;;;;;;;;;;;;;;;25.58;43.89;101692.13;5066701;28;19916;-84
2023/08/14 01:39:15;;;;;;;;;;;;;;;25.56;44.15;101694.41;5065697;28;19962;-84
2023/08/14 01:41:40;;;;;;;;;;;;;;;25.56;44.17;101700.69;5060506;28;19927;-83
2023/08/14 01:44:08;;;;;;;;;;;;;;;25.55;43.96;101699.09;5065531;28;19916;-84
2023/08/14 01:46:34;;;;;;;;;;;;;;;25.54;43.87;101693.94;5062716;28;19959;-84
2023/08/14 01:49:01;;;;;;;;;;;;;;;25.50;43.83;101702.00;5064749;28;20448;-84
2023/08/14 01:51:27;;;;;;;;;;;;;;;25.49;43.98;101702.31;5060843;28;19920;-84
2023/08/14 01:53:53;;;;;;;;;;;;;;;25.50;43.86;101701.22;5064292;28;19917;-84
2023/08/14 01:56:18;;;;;;;;;;;;;;;25.49;44.07;101694.06;5062552;28;19920;-84
2023/08/14 01:58:43;;;;;;;;;;;;;;;25.49;44.05;101694.88;5064348;28;19931;-84
2023/08/14 02:01:09;;;;;;;;;;;;;;;25.52;43.73;101693.44;5062345;28;19915;-84
2023/08/14 02:03:34;;;;;;;;;;;;;;;25.50;43.70;101692.97;5062169;28;19920;-84
2023/08/14 02:05:59;;;;;;;;;;;;;;;25.49;43.79;101683.91;5060101;28;19969;-84
2023/08/14 02:08:25;;;;;;;;;;;;;;;25.45;43.89;101693.13;5063065;28;20426;-84
2023/08/14 02:10:50;;;;;;;;;;;;;;;25.40;44.06;101691.38;5062275;28;19931;-83
2023/08/14 02:13:15;;;;;;;;;;;;;;;25.36;44.25;101682.19;5065158;28;19920;-84
2023/08/14 02:15:44;;;;;;;;;;;;;;;25.33;44.50;101688.31;5064335;28;19916;-83
2023/08/14 02:18:09;;;;;;;;;;;;;;;25.29;44.38;101692.81;5064248;28;20007;-83
2023/08/14 02:20:34;;;;;;;;;;;;;;;25.23;44.56;101688.66;5069009;28;20006;-84
2023/08/14 02:23:00;;;;;;;;;;;;;;;25.20;44.36;101686.56;5070039;28;19927;-84
2023/08/14 02:25:25;;;;;;;;;;;;;;;25.15;44.60;101692.22;5064132;28;19925;-84
2023/08/14 02:27:50;;;;;;;;;;;;;;;25.11;44.68;101683.81;5065764;28;19978;-84
2023/08/14 02:30:16;;;;;;;;;;;;;;;25.11;44.66;101683.81;5067491;28;20011;-84
2023/08/14 02:32:41;;;;;;;;;;;;;;;25.10;44.98;101678.66;5066196;28;20405;-84
2023/08/14 02:35:06;;;;;;;;;;;;;;;25.10;44.62;101678.66;5067454;28;19916;-83
2023/08/14 02:37:32;;;;;;;;;;;;;;;25.14;44.44;101680.44;5066839;28;19917;-84
2023/08/14 02:39:57;;;;;;;;;;;;;;;25.13;44.39;101673.31;5069385;28;20404;-84
2023/08/14 02:42:22;;;;;;;;;;;;;;;25.10;44.71;101670.41;5066975;28;19920;-84
2023/08/14 02:44:48;;;;;;;;;;;;;;;25.09;44.55;101671.56;5069801;28;19971;-83
2023/08/14 02:47:13;;;;;;;;;;;;;;;25.06;44.62;101678.50;5068450;28;19916;-84
2023/08/14 02:49:38;;;;;;;;;;;;;;;25.03;44.62;101676.41;5067462;28;19923;-84
2023/08/14 02:52:04;;;;;;;;;;;;;;;25.03;44.51;101675.59;5068914;28;19970;-84
2023/08/14 02:54:29;;;;;;;;;;;;;;;24.99;44.61;101673.50;5065594;28;19921;-84
2023/08/14 02:56:55;;;;;;;;;;;;;;;24.98;44.83;101671.88;5070033;28;19917;-84
2023/08/14 02:59:20;;;;;;;;;;;;;;;24.94;44.60;101665.38;5068233;28;19923;-84
2023/08/14 03:01:45;;;;;;;;;;;;;;;24.92;44.74;101664.91;5065560;28;19935;-84
2023/08/14 03:04:11;;;;;;;;;;;;;;;24.92;44.62;101670.41;5066673;28;19926;-84
2023/08/14 03:06:36;;;;;;;;;;;;;;;24.92;44.82;101673.13;5068094;28;19923;-84
2023/08/14 03:09:02;;;;;;;;;;;;;;;24.91;44.88;101677.00;5063164;28;19970;-84
2023/08/14 03:11:27;;;;;;;;;;;;;;;24.93;44.65;101677.50;5060603;28;19963;-84
2023/08/14 03:13:53;;;;;;;;;;;;;;;24.96;44.50;101685.09;5065026;28;20392;-84
2023/08/14 03:16:18;;;;;;;;;;;;;;;24.98;44.65;101677.34;5069676;28;19923;-84
2023/08/14 03:18:43;;;;;;;;;;;;;;;25.03;44.38;101694.78;5069276;28;19920;-83
2023/08/14 03:21:09;;;;;;;;;;;;;;;25.05;44.54;101692.53;5069287;28;20297;-85
2023/08/14 03:23:35;;;;;;;;;;;;;;;25.03;44.42;101689.31;5069248;28;19966;-84
2023/08/14 03:26:00;;;;;;;;;;;;;;;25.00;44.56;101697.06;5070072;28;20360;-85
2023/08/14 03:28:25;;;;;;;;;;;;;;;24.96;44.69;101698.81;5067886;28;19920;-84
2023/08/14 03:30:51;;;;;;;;;;;;;;;24.94;44.64;101701.03;5067602;28;19925;-84
2023/08/14 03:33:16;;;;;;;;;;;;;;;24.92;44.79;101694.25;5069237;28;19917;-84
2023/08/14 03:35:41;;;;;;;;;;;;;;;24.90;44.69;101697.31;5068661;28;20326;-84
2023/08/14 03:38:07;;;;;;;;;;;;;;;24.87;44.87;101694.44;5068542;28;19917;-84
2023/08/14 03:40:32;;;;;;;;;;;;;;;24.82;44.98;101697.34;5068557;28;20358;-83
2023/08/14 03:42:57;;;;;;;;;;;;;;;24.81;44.98;101704.75;5063343;28;20273;-83
2023/08/14 03:45:23;;;;;;;;;;;;;;;24.78;44.97;101699.91;5068793;28;19920;-84
2023/08/14 03:47:48;;;;;;;;;;;;;;;24.80;44.93;101708.63;5067267;28;20046;-84
2023/08/14 03:50:13;;;;;;;;;;;;;;;24.80;45.02;101700.41;5067046;28;19917;-84
2023/08/14 03:52:38;;;;;;;;;;;;;;;24.80;45.21;101705.88;5067931;28;19917;-84
2023/08/14 03:55:04;;;;;;;;;;;;;;;24.80;45.26;101696.84;5068608;28;19927;-84
2023/08/14 03:57:29;;;;;;;;;;;;;;;24.79;45.25;101706.22;5064844;28;19924;-83
2023/08/14 03:59:54;;;;;;;;;;;;;;;24.80;45.16;101708.63;5065497;28;19924;-84
2023/08/14 04:02:20;;;;;;;;;;;;;;;24.81;44.94;101701.22;5067149;28;19920;-83
2023/08/14 04:04:45;;;;;;;;;;;;;;;24.81;44.95;101707.50;5067107;28;19924;-84
2023/08/14 04:07:10;;;;;;;;;;;;;;;24.82;44.91;101711.84;5067400;28;20431;-84
2023/08/14 04:09:36;;;;;;;;;;;;;;;24.79;44.95;101701.53;5063348;28;20380;-84
2023/08/14 04:12:02;;;;;;;;;;;;;;;24.75;45.16;101697.78;5065799;28;20023;-84
2023/08/14 04:14:27;;;;;;;;;;;;;;;24.75;45.14;101691.50;5066809;28;19955;-84
2023/08/14 04:16:54;;;;;;;;;;;;;;;24.75;45.13;101695.06;5066853;28;20336;-84
2023/08/14 04:19:19;;;;;;;;;;;;;;;24.71;45.34;101683.13;5067275;28;19923;-84
2023/08/14 04:21:45;;;;;;;;;;;;;;;24.68;45.28;101679.09;5066060;28;19928;-84
2023/08/14 04:24:10;;;;;;;;;;;;;;;24.67;45.40;101677.47;5067330;28;19916;-84
2023/08/14 04:26:36;;;;;;;;;;;;;;;24.67;45.41;101682.16;5065476;28;20525;-84
2023/08/14 04:29:03;;;;;;;;;;;;;;;24.68;45.51;101681.84;5067506;28;20483;-83
2023/08/14 04:31:28;;;;;;;;;;;;;;;24.72;45.28;101682.00;5065872;28;19916;-84
2023/08/14 04:33:54;;;;;;;;;;;;;;;24.74;45.24;101677.00;5065312;28;19930;-84
2023/08/14 04:36:19;;;;;;;;;;;;;;;24.76;45.39;101673.94;5068233;28;19935;-84
2023/08/14 04:38:44;;;;;;;;;;;;;;;24.80;45.08;101678.47;5065719;28;19925;-84
2023/08/14 04:41:09;;;;;;;;;;;;;;;24.83;45.11;101672.34;5066447;28;20002;-84
2023/08/14 04:43:35;;;;;;;;;;;;;;;24.88;44.99;101676.84;5064787;28;19935;-84
2023/08/14 04:46:08;;;;;;;;;;;;;;;24.93;44.94;101668.47;5067605;28;20320;-84
2023/08/14 04:48:33;;;;;;;;;;;;;;;24.99;44.96;101679.00;5065090;28;19917;-83
2023/08/14 04:50:59;;;;;;;;;;;;;;;25.07;44.87;101673.81;5065217;28;20396;-84
2023/08/14 04:53:24;;;;;;;;;;;;;;;25.12;44.62;101679.94;5064557;28;19929;-84
2023/08/14 04:55:49;;;;;;;;;;;;;;;25.18;44.73;101675.91;5065767;28;19962;-84
2023/08/14 04:58:14;;;;;;;;;;;;;;;25.26;44.60;101682.50;5065612;28;19973;-84
2023/08/14 05:00:40;;;;;;;;;;;;;;;25.35;44.46;101675.09;5066206;28;19917;-83
2023/08/14 05:03:05;;;;;;;;;;;;;;;25.44;44.38;101669.56;5067045;28;19920;-84
2023/08/14 05:05:30;;;;;;;;;;;;;;;25.53;44.31;101676.66;5064177;28;19970;-83
2023/08/14 05:07:56;;;;;;;;;;;;;;;25.64;44.23;101671.59;5063154;28;20307;-84
2023/08/14 05:10:21;;;;;;;;;;;;;;;25.76;44.24;101673.72;5062827;28;20028;-83
2023/08/14 05:12:46;;;;;;;;;;;;;;;25.84;44.05;101678.34;5064580;28;20014;-83
2023/08/14 05:15:12;;;;;;;;;;;;;;;25.90;43.98;101679.78;5065459;28;19930;-84
2023/08/14 05:17:37;;;;;;;;;;;;;;;25.96;43.91;101683.97;5066791;28;19916;-84
2023/08/14 05:20:03;;;;;;;;;;;;;;;26.03;44.01;101673.28;5061363;28;20865;-84
2023/08/14 05:22:28;;;;;;;;;;;;;;;26.10;44.13;101679.06;5059217;28;19921;-84
2023/08/14 05:24:53;;;;;;;;;;;;;;;26.17;43.67;101681.28;5058309;28;19931;-83
2023/08/14 05:27:18;;;;;;;;;;;;;;;26.20;43.65;101677.84;5061190;28;19920;-83
2023/08/14 05:29:45;;;;;;;;;;;;;;;26.14;43.63;101671.75;5060665;28;19920;-83
2023/08/14 05:32:10;;;;;;;;;;;;;;;26.15;43.50;101676.13;5062609;28;19916;-84
2023/08/14 05:34:36;;;;;;;;;;;;;;;26.16;43.36;101677.72;5062875;28;19973;-83
2023/08/14 05:37:01;;;;;;;;;;;;;;;26.16;43.57;101676.91;5061972;28;19920;-84
2023/08/14 05:39:27;;;;;;;;;;;;;;;26.16;43.53;101680.47;5059548;28;20516;-83
2023/08/14 05:41:52;;;;;;;;;;;;;;;26.18;43.69;101685.63;5060607;28;19925;-83
2023/08/14 05:44:17;;;;;;;;;;;;;;;26.20;43.68;101683.34;5064409;28;19956;-83
2023/08/14 05:46:43;;;;;;;;;;;;;;;26.27;43.56;101688.34;5060918;28;19916;-83
2023/08/14 05:49:08;;;;;;;;;;;;;;;26.33;43.51;101681.50;5060777;28;20388;-84
2023/08/14 05:51:33;;;;;;;;;;;;;;;26.38;43.36;101676.66;5056773;28;20301;-84
2023/08/14 05:53:59;;;;;;;;;;;;;;;26.48;43.53;101669.97;5061187;28;19917;-83
2023/08/14 05:56:24;;;;;;;;;;;;;;;26.54;43.26;101676.88;5059381;28;19931;-84
2023/08/14 05:58:49;;;;;;;;;;;;;;;26.62;43.42;101678.78;5063069;28;19920;-84
2023/08/14 06:01:14;;;;;;;;;;;;;;;26.70;43.16;101680.66;5061595;28;20027;-84
2023/08/14 06:03:40;;;;;;;;;;;;;;;26.78;43.14;101688.03;5064959;28;20008;-84
2023/08/14 06:06:05;;;;;;;;;;;;;;;26.92;42.69;101687.75;5061508;28;20397;-83
2023/08/14 06:08:31;;;;;;;;;;;;;;;26.99;42.97;101688.03;5059086;28;19920;-83
2023/08/14 06:10:56;;;;;;;;;;;;;;;27.05;42.84;101683.97;5060531;28;19917;-83
2023/08/14 06:13:22;;;;;;;;;;;;;;;27.11;42.72;101676.31;5058162;28;19923;-83
2023/08/14 06:15:47;;;;;;;;;;;;;;;27.23;42.86;101670.84;5063112;28;19924;-83
2023/08/14 06:18:12;;;;;;;;;;;;;;;27.41;42.60;101676.97;5063897;28;20331;-83
2023/08/14 06:20:38;;;;;;;;;;;;;;;27.58;42.52;101687.00;5059869;28;19927;-84
2023/08/14 06:23:03;;;;;;;;;;;;;;;27.70;42.54;101689.81;5057788;28;19935;-83
2023/08/14 06:25:31;;;;;;;;;;;;;;;27.81;42.41;101690.16;5061872;28;19916;-83
2023/08/14 06:27:56;;;;;;;;;;;;;;;27.90;42.19;101691.69;5059199;28;19928;-83
2023/08/14 06:30:22;;;;;;;;;;;;;;;28.01;42.29;101692.03;5060615;28;19924;-83
2023/08/14 06:32:48;;;;;;;;;;;;;;;28.14;42.33;101690.06;5062318;28;19972;-83
2023/08/14 06:35:13;;;;;;;;;;;;;;;28.29;42.19;101692.16;5062657;28;19920;-83
2023/08/14 06:37:38;;;;;;;;;;;;;;;28.41;42.04;101680.34;5060060;28;20007;-83
2023/08/14 06:40:04;;;;;;;;;;;;;;;28.61;42.00;101697.88;5060557;28;20387;-83
2023/08/14 06:42:29;;;;;;;;;;;;;;;28.79;41.52;101699.22;5062514;28;19921;-83
2023/08/14 06:44:55;;;;;;;;;;;;;;;28.93;41.28;101690.59;5062384;28;19924;-83
2023/08/14 06:47:20;;;;;;;;;;;;;;;29.03;41.34;101690.06;5061224;28;20408;-83
2023/08/14 06:49:45;;;;;;;;;;;;;;;29.10;41.36;101685.59;5057478;28;20299;-83
2023/08/14 06:52:11;;;;;;;;;;;;;;;29.21;41.17;101687.81;5057581;28;19929;-83
2023/08/14 06:54:37;;;;;;;;;;;;;;;29.30;41.03;101699.53;5063026;28;19916;-83
2023/08/14 06:57:02;;;;;;;;;;;;;;;29.37;40.97;101694.97;5060938;28;20596;-83
2023/08/14 06:59:30;;;;;;;;;;;;;;;29.51;41.09;101696.56;5062329;28;19981;-83
2023/08/14 07:01:55;;;;;;;;;;;;;;;29.71;40.65;101704.59;5065160;28;19928;-83
2023/08/14 07:04:21;;;;;;;;;;;;;;;29.82;40.20;101709.59;5057010;28;20336;-83
2023/08/14 07:06:46;;;;;;;;;;;;;;;29.88;40.22;101705.41;5064751;28;20017;-83
2023/08/14 07:09:14;;;;;;;;;;;;;;;29.97;40.23;101706.03;5062967;28;19917;-83
2023/08/14 07:11:39;;;;;;;;;;;;;;;30.09;40.16;101703.19;5059617;28;19924;-83
2023/08/14 07:14:05;;;;;;;;;;;;;;;30.23;39.97;101703.56;5061266;28;19920;-83
2023/08/14 07:16:30;;;;;;;;;;;;;;;30.32;39.17;101703.34;5060154;28;19920;-84
2023/08/14 07:18:56;;;;;;;;;;;;;;;30.39;39.18;101709.06;5058762;28;19927;-83
2023/08/14 07:21:21;;;;;;;;;;;;;;;30.51;38.97;101703.38;5060023;28;19963;-83
2023/08/14 07:23:46;;;;;;;;;;;;;;;30.60;38.58;101705.97;5061188;28;20585;-83
2023/08/14 07:26:12;;;;;;;;;;;;;;;30.67;38.74;101698.66;5059622;28;19949;-83
2023/08/14 07:28:38;;;;;;;;;;;;;;;30.71;38.29;101704.28;5063411;28;20029;-83
2023/08/14 07:31:04;;;;;;;;;;;;;;;30.75;38.21;101696.84;5064341;28;20020;-83
2023/08/14 07:33:29;;;;;;;;;;;;;;;30.88;38.00;101698.31;5063387;28;20472;-84
2023/08/14 07:35:55;;;;;;;;;;;;;;;31.02;38.23;101700.56;5060316;28;19920;-83
2023/08/14 07:38:20;;;;;;;;;;;;;;;31.12;38.08;101691.69;5060493;28;19920;-83
2023/08/14 07:40:45;;;;;;;;;;;;;;;31.26;37.91;101696.72;5063407;28;19924;-83
2023/08/14 07:43:10;;;;;;;;;;;;;;;31.34;37.74;101695.69;5062669;28;20319;-83
2023/08/14 07:45:36;;;;;;;;;;;;;;;31.39;37.24;101698.16;5061637;28;19999;-83
2023/08/14 07:48:01;;;;;;;;;;;;;;;31.50;37.41;101703.88;5059509;28;19927;-83
2023/08/14 07:50:26;;;;;;;;;;;;;;;31.67;37.57;101702.63;5062409;28;19921;-83
2023/08/14 07:52:52;;;;;;;;;;;;;;;31.80;37.18;101701.28;5061486;28;20482;-83
2023/08/14 07:55:17;;;;;;;;;;;;;;;31.90;36.87;101695.13;5064077;28;19952;-83
2023/08/14 07:57:45;;;;;;;;;;;;;;;31.98;36.00;101707.94;5062951;28;19965;-83
2023/08/14 08:00:11;;;;;;;;;;;;;;;31.98;36.26;101707.13;5061910;28;19927;-82
2023/08/14 08:02:37;;;;;;;;;;;;;;;32.02;36.83;101706.00;5058394;28;20710;-83
2023/08/14 08:05:02;;;;;;;;;;;;;;;32.11;36.63;101712.09;5057189;28;19928;-83
2023/08/14 08:07:28;;;;;;;;;;;;;;;32.18;36.02;101711.41;5060235;28;19920;-84
2023/08/14 08:09:53;;;;;;;;;;;;;;;32.24;35.50;101706.34;5061113;28;20019;-84
2023/08/14 08:12:18;;;;;;;;;;;;;;;32.33;35.92;101701.38;5058676;28;20644;-84
2023/08/14 08:14:44;;;;;;;;;;;;;;;32.52;35.57;101704.03;5061388;28;19932;-84
2023/08/14 08:17:09;;;;;;;;;;;;;;;32.73;34.97;101712.63;5058434;28;19952;-84
2023/08/14 08:19:34;;;;;;;;;;;;;;;32.81;35.43;101713.53;5058704;28;19920;-84
2023/08/14 08:22:00;;;;;;;;;;;;;;;32.96;35.24;101717.31;5055899;28;20052;-84
2023/08/14 08:24:25;;;;;;;;;;;;;;;33.06;34.93;101702.75;5052781;28;19924;-84
2023/08/14 08:26:50;;;;;;;;;;;;;;;33.19;34.78;101715.19;5055465;28;19927;-84
2023/08/14 08:29:16;;;;;;;;;;;;;;;33.29;35.03;101711.75;5059655;28;19924;-84
2023/08/14 08:31:41;;;;;;;;;;;;;;;33.41;34.67;101718.25;5063208;28;20034;-84
2023/08/14 08:34:06;;;;;;;;;;;;;;;33.48;34.55;101709.97;5062916;28;19920;-85
2023/08/14 08:36:31;;;;;;;;;;;;;;;33.60;34.24;101712.50;5062006;28;20042;-84
2023/08/14 08:38:57;;;;;;;;;;;;;;;33.66;34.11;101722.06;5062694;28;19920;-85
2023/08/14 08:41:29;;;;;;;;;;;;;;;33.65;33.78;101726.03;5063011;28;19935;-84
2023/08/14 08:44:15;;;;;;;;;;;;;;;33.69;33.77;101720.50;5060249;28;20050;-84
2023/08/14 08:46:51;;;;;;;;;;;;;;;33.80;33.92;101718.63;5063430;28;19924;-84
2023/08/14 08:49:17;;;;;;;;;;;;;;;33.93;33.52;101715.22;5062271;28;19938;-84
2023/08/14 08:51:43;;;;;;;;;;;;;;;33.96;32.67;101712.84;5068836;28;20386;-84
2023/08/14 08:54:09;;;;;;;;;;;;;;;34.02;32.74;101711.28;5061270;28;19924;-84
2023/08/14 08:56:36;;;;;;;;;;;;;;;34.06;32.97;101706.53;5057756;28;20428;-85
2023/08/14 08:59:02;;;;;;;;;;;;;;;34.15;32.51;101701.47;5058869;28;19932;-84
2023/08/14 09:01:28;;;;;;;;;;;;;;;34.18;32.59;101703.47;5057599;28;19920;-85
2023/08/14 09:03:53;;;;;;;;;;;;;;;34.27;32.81;101705.88;5056182;28;20458;-85
2023/08/14 09:06:19;;;;;;;;;;;;;;;34.23;32.40;101705.88;5056102;28;19925;-86
2023/08/14 09:08:44;;;;;;;;;;;;;;;34.37;32.68;101694.88;5056626;28;20304;-85
2023/08/14 09:11:10;;;;;;;;;;;;;;;34.50;29.87;101695.34;5063672;28;19920;-83
2023/08/14 09:13:35;;;;;;;;;;;;;;;34.51;31.28;101688.59;5057695;28;20003;-84
2023/08/14 09:16:01;;;;;;;;;;;;;;;34.60;30.71;101685.44;5062530;28;20106;-84
2023/08/14 09:18:26;;;;;;;;;;;;;;;34.65;30.70;101682.28;5054382;28;20660;-83
2023/08/14 09:20:51;;;;;;;;;;;;;;;34.65;30.38;101680.31;5058412;28;19920;-83
2023/08/14 09:23:17;;;;;;;;;;;;;;;34.70;30.36;101679.94;5056007;28;20066;-84
2023/08/14 09:25:45;;;;;;;;;;;;;;;34.85;30.80;101669.69;5058855;28;20119;-83
2023/08/14 09:28:11;;;;;;;;;;;;;;;35.07;30.40;101668.56;5058985;28;19920;-83
2023/08/14 09:30:37;;;;;;;;;;;;;;;35.27;30.53;101668.19;5062657;28;20034;-83
2023/08/14 09:33:06;;;;;;;;;;;;;;;35.29;29.57;101679.75;5059438;28;19920;-83
2023/08/14 09:35:31;;;;;;;;;;;;;;;35.28;29.53;101675.38;5058616;28;19916;-83
2023/08/14 09:37:58;;;;;;;;;;;;;;;35.27;29.21;101673.78;5062033;28;19927;-83
2023/08/14 09:40:23;;;;;;;;;;;;;;;35.33;29.63;101672.19;5061313;28;19916;-84
2023/08/14 09:42:50;;;;;;;;;;;;;;;35.40;29.36;101677.81;5063526;28;19931;-85
2023/08/14 09:45:16;;;;;;;;;;;;;;;35.50;29.39;101679.81;5053673;28;19986;-83
2023/08/14 09:47:42;;;;;;;;;;;;;;;35.64;29.18;101677.03;5055605;28;19917;-83
2023/08/14 09:50:08;;;;;;;;;;;;;;;35.83;28.82;101672.25;5056638;28;19928;-85
2023/08/14 09:52:33;;;;;;;;;;;;;;;36.00;28.53;101675.06;5050875;28;19917;-85
2023/08/14 09:55:00;;;;;;;;;;;;;;;36.05;28.53;101667.47;5059790;28;19928;-83
2023/08/14 09:57:25;;;;;;;;;;;;;;;36.18;28.24;101677.00;5060951;28;19920;-82
2023/08/14 09:59:51;;;;;;;;;;;;;;;36.24;28.54;101673.41;5059074;28;19921;-84
2023/08/14 10:02:17;;;;;;;;;;;;;;;36.43;28.06;101671.38;5058801;28;19924;-82
2023/08/14 10:04:45;;;;;;;;;;;;;;;36.49;28.22;101664.22;5057665;28;19924;-83
2023/08/14 10:07:12;;;;;;;;;;;;;;;36.64;28.36;101673.31;5057388;28;19920;-85
2023/08/14 10:09:40;;;;;;;;;;;;;;;36.75;28.04;101677.66;5060453;28;19917;-83
2023/08/14 10:12:11;;;;;;;;;;;;;;;36.76;27.91;101684.03;5057523;28;19931;-84
2023/08/14 10:14:37;;;;;;;;;;;;;;;36.79;27.31;101678.44;5058147;28;19913;-84
2023/08/14 10:17:04;;;;;;;;;;;;;;;36.77;26.86;101672.44;5057988;28;19924;-82
2023/08/14 10:19:30;;;;;;;;;;;;;;;36.79;26.94;101681.25;5061850;28;21567;-83
2023/08/14 10:21:56;;;;;;;;;;;;;;;36.79;27.10;101678.44;5058860;28;19920;-83
2023/08/14 10:24:23;;;;;;;;;;;;;;;36.83;27.66;101676.47;5057995;28;19916;-84
2023/08/14 10:26:49;;;;;;;;;;;;;;;36.96;27.49;101678.78;5062615;28;20343;-83
2023/08/14 10:29:15;;;;;;;;;;;;;;;37.01;25.79;101679.16;5064934;28;19977;-85
2023/08/14 10:31:40;;;;;;;;;;;;;;;36.90;26.39;101668.03;5059169;28;20400;-82
2023/08/14 10:34:06;;;;;;;;;;;;;;;36.97;27.08;101660.81;5058461;28;19920;-82
2023/08/14 10:36:31;;;;;;;;;;;;;;;37.08;27.24;101667.13;5057452;28;19958;-84
2023/08/14 10:39:08;;;;;;;;;;;;;;;37.16;26.65;101674.25;5057271;28;19973;-84
2023/08/14 10:41:34;;;;;;;;;;;;;;;37.08;26.32;101673.53;5057679;28;19924;-84
2023/08/14 10:44:03;;;;;;;;;;;;;;;37.08;26.34;101675.53;5064674;28;19925;-85
2023/08/14 10:46:28;;;;;;;;;;;;;;;37.24;26.48;101681.41;5066701;28;19920;-84
2023/08/14 10:48:54;;;;;;;;;;;;;;;37.38;26.83;101677.75;5066534;28;20299;-85
2023/08/14 10:51:20;;;;;;;;;;;;;;;37.40;25.88;101687.31;5064074;28;19917;-84
2023/08/14 10:53:45;;;;;;;;;;;;;;;37.36;26.24;101678.16;5063716;28;20034;-84
2023/08/14 10:56:12;;;;;;;;;;;;;;;37.37;26.53;101681.75;5052446;28;19920;-84
2023/08/14 10:58:38;;;;;;;;;;;;;;;37.48;26.35;101677.66;5066153;28;19927;-82
2023/08/14 11:01:10;;;;;;;;;;;;;;;37.61;26.09;101677.19;5061024;28;20190;-81
2023/08/14 11:03:54;;;;;;;;;;;;;;;37.67;26.08;101672.72;5065034;28;20027;-84
2023/08/14 11:06:26;;;;;;;;;;;;;;;37.63;25.99;101663.56;5055473;28;20349;-83
2023/08/14 11:09:18;;;;;;;;;;;;;;;37.60;26.21;101673.59;5060443;28;20396;-85
2023/08/14 11:11:43;;;;;;;;;;;;;;;37.59;25.94;101668.41;5058606;28;19920;-83
2023/08/14 11:14:09;;;;;;;;;;;;;;;37.48;25.60;101663.69;5053955;28;19974;-82
2023/08/14 11:16:35;;;;;;;;;;;;;;;37.40;26.06;101667.75;5060544;28;19972;-83
2023/08/14 11:19:01;;;;;;;;;;;;;;;37.41;25.86;101666.53;5058596;28;19920;-84
2023/08/14 11:21:26;;;;;;;;;;;;;;;37.39;26.24;101665.38;5064460;28;21773;-82
2023/08/14 11:23:52;;;;;;;;;;;;;;;37.58;25.91;101662.03;5062057;28;19928;-84
2023/08/14 11:26:18;;;;;;;;;;;;;;;37.70;25.46;101667.09;5062365;28;19987;-84
2023/08/14 11:28:43;;;;;;;;;;;;;;;37.66;24.69;101662.75;5063724;28;21729;-83
2023/08/14 11:31:09;;;;;;;;;;;;;;;37.60;25.63;101658.81;5065853;28;19967;-85
2023/08/14 11:33:35;;;;;;;;;;;;;;;37.66;25.53;101662.75;5066908;28;19932;-84
2023/08/14 11:36:00;;;;;;;;;;;;;;;37.83;25.94;101661.81;5060265;28;19920;-84
2023/08/14 11:38:25;;;;;;;;;;;;;;;38.07;25.98;101665.59;5066199;28;19925;-85
2023/08/14 11:40:51;;;;;;;;;;;;;;;38.25;25.57;101680.22;5064308;28;20354;-83
2023/08/14 11:43:16;;;;;;;;;;;;;;;38.29;25.07;101661.38;5063174;28;19921;-85
2023/08/14 11:45:41;;;;;;;;;;;;;;;38.24;25.36;101663.81;5063421;28;19916;-85
2023/08/14 11:48:08;;;;;;;;;;;;;;;38.28;25.06;101661.81;5062167;28;19916;-86
2023/08/14 11:50:34;;;;;;;;;;;;;;;38.32;25.02;101654.94;5063331;28;19917;-85
2023/08/14 11:52:59;;;;;;;;;;;;;;;38.45;25.20;101657.22;5063048;28;19978;-85
2023/08/14 11:55:26;;;;;;;;;;;;;;;38.57;25.11;101660.22;5065162;28;19926;-85
2023/08/14 11:57:51;;;;;;;;;;;;;;;38.66;24.58;101652.16;5064610;28;19928;-82
2023/08/14 12:00:17;;;;;;;;;;;;;;;38.70;24.98;101652.09;5060461;28;19974;-84
2023/08/14 12:02:42;;;;;;;;;;;;;;;38.70;25.09;101646.50;5062472;28;19925;-82
2023/08/14 12:05:08;;;;;;;;;;;;;;;38.74;24.99;101649.25;5062181;28;19920;-83
2023/08/14 12:07:33;;;;;;;;;;;;;;;38.80;25.01;101647.59;5063502;28;19928;-86
2023/08/14 12:09:59;;;;;;;;;;;;;;;38.90;25.01;101660.63;5061535;28;20612;-84
2023/08/14 12:12:25;;;;;;;;;;;;;;;39.05;24.89;101650.03;5061902;28;20008;-85
2023/08/14 12:14:51;;;;;;;;;;;;;;;39.19;24.96;101645.03;5061078;28;20456;-85
2023/08/14 12:17:18;;;;;;;;;;;;;;;39.33;24.52;101637.63;5061093;28;19970;-83
2023/08/14 12:19:50;;;;;;;;;;;;;;;39.50;24.49;101637.31;5057048;28;19924;-85
2023/08/14 12:22:15;;;;;;;;;;;;;;;39.56;24.36;101632.03;5061712;28;19932;-84
2023/08/14 12:24:42;;;;;;;;;;;;;;;39.64;24.43;101630.69;5062000;28;20440;-81
2023/08/14 12:27:23;;;;;;;;;;;;;;;39.70;24.58;101622.59;5060661;28;19974;-85
2023/08/14 12:29:49;;;;;;;;;;;;;;;39.73;24.14;101622.53;5059672;28;20001;-83